Time;durP1;ratioP1;P1;durP2;ratioP2;P2;SDS_P1;SDS_P2;PMS_P1;PMS_P2;Temp;Humidity;BMP_temperature;BMP_pressure;BME280_temperature;BME280_humidity;BME280_pressure;Samples;Min_cycle;Max_cycle;Signal;HPM_P1;HPM_P2
2023/04/27 00:02:16;;;;;;;7.70;3.73;;;7.40;99.90;;;;;;5133218;27;20237;-50
2023/04/27 00:04:44;;;;;;;6.03;3.57;;;7.50;99.90;;;;;;5132896;27;20293;-50
2023/04/27 00:07:12;;;;;;;6.03;4.00;;;7.40;99.90;;;;;;5133034;27;20662;-51
2023/04/27 00:09:40;;;;;;;5.43;3.80;;;7.50;99.90;;;;;;5132578;27;20230;-51
2023/04/27 00:12:08;;;;;;;11.33;5.60;;;7.50;99.90;;;;;;5121401;27;20210;-50
2023/04/27 00:14:36;;;;;;;16.97;7.17;;;7.50;99.90;;;;;;5119618;27;20226;-51
2023/04/27 00:17:05;;;;;;;7.93;5.33;;;7.50;99.90;;;;;;5132037;27;20238;-50
2023/04/27 00:19:34;;;;;;;7.50;4.33;;;7.50;99.90;;;;;;5132451;27;20294;-51
2023/04/27 00:22:02;;;;;;;7.83;3.57;;;7.50;99.90;;;;;;5128595;27;20207;-50
2023/04/27 00:24:30;;;;;;;6.67;4.07;;;7.50;99.90;;;;;;5111928;28;20230;-50
2023/04/27 00:26:58;;;;;;;5.03;3.83;;;7.40;99.90;;;;;;5111829;28;20310;-50
2023/04/27 00:29:26;;;;;;;6.90;3.50;;;7.40;99.90;;;;;;5111838;28;20777;-51
2023/04/27 00:31:54;;;;;;;8.50;3.30;;;7.40;99.90;;;;;;5111976;28;20294;-50
2023/04/27 00:34:23;;;;;;;5.37;3.57;;;7.40;99.90;;;;;;5111816;28;20723;-51
2023/04/27 00:36:51;;;;;;;9.00;3.57;;;7.30;99.90;;;;;;5112012;28;20975;-50
2023/04/27 00:39:19;;;;;;;5.87;3.30;;;7.30;99.90;;;;;;5097982;28;20239;-50
2023/04/27 00:41:47;;;;;;;6.20;3.57;;;7.20;99.90;;;;;;5111752;28;20717;-51
2023/04/27 00:44:22;;;;;;;4.83;3.50;;;7.20;99.90;;;;;;5111590;28;20717;-51
2023/04/27 00:46:51;;;;;;;7.27;3.70;;;7.20;99.90;;;;;;5111930;28;20306;-51
2023/04/27 00:49:19;;;;;;;7.93;4.07;;;7.20;99.90;;;;;;5111416;28;21080;-51
2023/04/27 00:51:49;;;;;;;5.23;3.70;;;7.30;99.90;;;;;;5111582;28;20211;-50
2023/04/27 00:54:19;;;;;;;6.67;3.67;;;7.30;99.90;;;;;;5111414;28;20246;-50
2023/04/27 00:56:48;;;;;;;4.57;3.87;;;7.30;99.90;;;;;;5110833;28;20257;-51
2023/04/27 00:59:17;;;;;;;6.50;3.53;;;7.30;99.90;;;;;;5117819;27;20281;-51
2023/04/27 01:01:46;;;;;;;8.33;3.80;;;7.30;99.90;;;;;;5120328;27;20286;-50
2023/04/27 01:04:15;;;;;;;6.00;3.33;;;7.30;99.90;;;;;;5119960;27;20692;-51
2023/04/27 01:06:44;;;;;;;6.43;3.57;;;7.20;99.90;;;;;;5121783;27;20850;-51
2023/04/27 01:09:15;;;;;;;9.77;4.00;;;7.10;99.90;;;;;;5130000;27;20800;-51
2023/04/27 01:11:43;;;;;;;4.57;3.30;;;7.10;99.90;;;;;;5129243;27;20211;-51
2023/04/27 01:14:11;;;;;;;5.40;3.83;;;7.00;99.90;;;;;;5129671;27;20206;-50
2023/04/27 01:16:39;;;;;;;7.07;3.40;;;7.00;99.90;;;;;;5131582;27;20313;-51
2023/04/27 01:19:08;;;;;;;5.67;3.30;;;7.00;99.90;;;;;;5130513;27;20235;-51
2023/04/27 01:21:36;;;;;;;6.10;3.60;;;7.00;99.90;;;;;;5131440;27;20618;-51
2023/04/27 01:24:06;;;;;;;8.40;3.40;;;7.00;99.90;;;;;;5131501;27;20289;-51
2023/04/27 01:26:35;;;;;;;6.20;3.33;;;7.00;99.90;;;;;;5131133;27;20324;-50
2023/04/27 01:29:03;;;;;;;4.27;3.40;;;7.00;99.90;;;;;;5131676;27;20269;-51
2023/04/27 01:31:31;;;;;;;4.13;3.43;;;7.00;99.90;;;;;;5131434;27;20306;-50
2023/04/27 01:33:59;;;;;;;5.63;3.40;;;7.00;99.90;;;;;;5131650;27;20210;-51
2023/04/27 01:36:27;;;;;;;6.80;3.70;;;7.00;99.90;;;;;;5130901;27;20219;-51
2023/04/27 01:38:55;;;;;;;6.50;3.50;;;6.90;99.90;;;;;;5131406;27;20203;-50
2023/04/27 01:41:25;;;;;;;9.80;3.80;;;6.80;99.90;;;;;;5130715;27;20242;-51
2023/04/27 01:43:53;;;;;;;4.83;3.27;;;6.80;99.90;;;;;;5130939;27;20205;-50
2023/04/27 01:46:21;;;;;;;5.60;3.50;;;6.80;99.90;;;;;;5131242;27;20604;-51
2023/04/27 01:48:49;;;;;;;5.97;3.27;;;6.70;99.90;;;;;;5131060;27;20199;-51
2023/04/27 01:51:17;;;;;;;9.67;3.40;;;6.70;99.90;;;;;;5131123;27;20230;-51
2023/04/27 01:53:45;;;;;;;6.50;3.60;;;6.60;99.90;;;;;;5130589;27;20199;-51
2023/04/27 01:56:13;;;;;;;6.60;3.60;;;6.60;99.90;;;;;;5130023;27;20255;-50
2023/04/27 01:58:42;;;;;;;6.03;3.50;;;6.60;99.90;;;;;;5130803;27;20677;-51
2023/04/27 02:01:10;;;;;;;7.07;3.57;;;6.60;99.90;;;;;;5131007;27;20263;-50
2023/04/27 02:03:38;;;;;;;5.70;3.57;;;6.60;99.90;;;;;;5127489;27;20207;-51
2023/04/27 02:06:07;;;;;;;5.13;3.57;;;6.50;99.90;;;;;;5095774;28;20247;-51
2023/04/27 02:08:35;;;;;;;7.63;3.60;;;6.50;99.90;;;;;;5122956;27;20238;-50
2023/04/27 02:11:03;;;;;;;5.37;4.03;;;6.50;99.90;;;;;;5130567;27;20229;-51
2023/04/27 02:13:31;;;;;;;6.40;4.00;;;6.50;99.90;;;;;;5125958;27;20203;-51
2023/04/27 02:16:02;;;;;;;5.27;3.80;;;6.50;99.90;;;;;;5130306;27;20591;-51
2023/04/27 02:18:31;;;;;;;7.57;3.73;;;6.50;99.90;;;;;;5130406;27;20219;-51
2023/04/27 02:20:59;;;;;;;5.53;3.67;;;6.50;99.90;;;;;;5122143;27;20589;-51
2023/04/27 02:23:27;;;;;;;3.87;3.47;;;6.50;99.90;;;;;;5128706;27;20685;-50
2023/04/27 02:25:55;;;;;;;4.73;3.37;;;6.50;99.90;;;;;;5129515;27;20246;-53
2023/04/27 02:28:23;;;;;;;7.37;3.50;;;6.50;99.90;;;;;;5129758;27;20257;-54
2023/04/27 02:30:51;;;;;;;7.30;3.80;;;6.40;99.90;;;;;;5112092;27;20204;-54
2023/04/27 02:33:21;;;;;;;4.00;3.13;;;6.40;99.90;;;;;;5130128;27;20310;-53
2023/04/27 02:35:49;;;;;;;7.13;3.83;;;6.40;99.90;;;;;;5129798;27;20256;-54
2023/04/27 02:38:17;;;;;;;7.30;3.50;;;6.40;99.90;;;;;;5101822;27;20298;-53
2023/04/27 02:40:45;;;;;;;6.13;3.90;;;6.40;99.90;;;;;;5092617;28;20647;-54
2023/04/27 02:43:13;;;;;;;7.33;3.73;;;6.40;99.90;;;;;;5095862;28;20292;-53
2023/04/27 02:45:41;;;;;;;8.73;3.97;;;6.50;99.90;;;;;;5112797;27;20258;-53
2023/04/27 02:48:09;;;;;;;5.93;3.73;;;6.50;99.90;;;;;;5117502;27;20214;-53
2023/04/27 02:50:42;;;;;;;7.13;3.90;;;6.40;99.90;;;;;;5108961;28;20209;-53
2023/04/27 02:53:11;;;;;;;5.03;3.80;;;6.30;99.90;;;;;;5109376;28;20210;-53
2023/04/27 02:55:45;;;;;;;7.43;3.87;;;6.20;99.90;;;;;;5094336;28;20804;-53
2023/04/27 02:58:13;;;;;;;6.20;4.10;;;6.30;99.90;;;;;;5109115;28;20291;-53
2023/04/27 03:00:41;;;;;;;7.23;4.17;;;6.20;99.90;;;;;;5109203;28;20297;-53
2023/04/27 03:03:09;;;;;;;7.37;3.67;;;6.20;99.90;;;;;;5108995;28;20707;-54
2023/04/27 03:05:37;;;;;;;6.37;3.87;;;6.20;99.90;;;;;;5108934;28;20235;-54
2023/04/27 03:08:07;;;;;;;4.87;4.03;;;6.20;99.90;;;;;;5109152;28;20238;-53
2023/04/27 03:10:35;;;;;;;8.23;4.23;;;6.20;99.90;;;;;;5108833;28;20713;-53
2023/04/27 03:13:03;;;;;;;8.60;4.70;;;6.20;99.90;;;;;;5095104;28;20297;-53
2023/04/27 03:15:31;;;;;;;7.97;4.83;;;6.20;99.90;;;;;;5118812;27;20227;-53
2023/04/27 03:17:59;;;;;;;6.73;4.77;;;6.20;99.90;;;;;;5109785;28;20676;-53
2023/04/27 03:20:27;;;;;;;6.47;4.30;;;6.20;99.90;;;;;;5108918;28;20848;-53
2023/04/27 03:22:55;;;;;;;5.10;4.30;;;6.10;99.90;;;;;;5108832;28;20239;-53
2023/04/27 03:25:24;;;;;;;11.07;5.10;;;6.10;99.90;;;;;;5108583;28;20274;-53
2023/04/27 03:27:52;;;;;;;7.30;4.83;;;6.20;99.90;;;;;;5108447;28;20211;-53
2023/04/27 03:30:21;;;;;;;7.67;5.00;;;6.10;99.90;;;;;;5108859;28;20685;-53
2023/04/27 03:32:49;;;;;;;8.80;5.50;;;6.10;99.90;;;;;;5108892;28;20798;-52
2023/04/27 03:35:17;;;;;;;7.47;5.73;;;6.20;99.90;;;;;;5108601;28;20674;-54
2023/04/27 03:37:45;;;;;;;8.83;5.70;;;6.10;99.90;;;;;;5108678;28;20900;-53
2023/04/27 03:40:14;;;;;;;6.43;5.10;;;6.10;99.90;;;;;;5094736;28;20235;-53
2023/04/27 03:42:43;;;;;;;10.30;5.20;;;6.10;99.90;;;;;;5108807;28;20221;-53
2023/04/27 03:45:12;;;;;;;10.90;5.73;;;6.00;99.90;;;;;;5104488;28;20256;-54
2023/04/27 03:47:39;;;;;;;9.53;5.50;;;6.00;99.90;;;;;;5098545;28;20777;-53
2023/04/27 03:50:08;;;;;;;8.60;5.83;;;6.00;99.90;;;;;;5108028;28;20209;-53
2023/04/27 03:52:36;;;;;;;8.80;6.57;;;5.90;99.90;;;;;;5108438;28;20207;-53
2023/04/27 03:55:06;;;;;;;12.90;7.60;;;6.00;99.90;;;;;;5108601;28;20250;-54
2023/04/27 03:57:34;;;;;;;10.90;7.10;;;5.90;99.90;;;;;;5108667;28;20216;-53
2023/04/27 04:00:06;;;;;;;13.30;7.90;;;5.90;99.90;;;;;;5108554;28;20305;-53
2023/04/27 04:02:35;;;;;;;13.47;7.70;;;5.90;99.90;;;;;;5108630;28;20263;-53
2023/04/27 04:05:03;;;;;;;14.87;8.23;;;5.80;99.90;;;;;;5108051;28;20599;-53
2023/04/27 04:07:31;;;;;;;14.50;7.67;;;5.70;99.90;;;;;;5108480;28;20311;-51
2023/04/27 04:09:59;;;;;;;11.77;7.30;;;5.70;99.90;;;;;;5108498;28;20202;-51
2023/04/27 04:12:28;;;;;;;14.50;7.87;;;5.70;99.90;;;;;;5108125;28;20205;-51
2023/04/27 04:14:56;;;;;;;16.13;8.17;;;5.70;99.90;;;;;;5108403;28;20211;-50
2023/04/27 04:17:25;;;;;;;11.40;7.33;;;5.70;99.90;;;;;;5108005;28;20763;-50
2023/04/27 04:19:53;;;;;;;11.60;7.57;;;5.70;99.90;;;;;;5108480;28;20203;-51
2023/04/27 04:22:21;;;;;;;15.67;7.33;;;5.70;99.90;;;;;;5108044;28;20780;-51
2023/04/27 04:24:50;;;;;;;12.33;8.40;;;5.70;99.90;;;;;;5108426;28;20214;-51
2023/04/27 04:27:18;;;;;;;18.57;11.30;;;5.60;99.90;;;;;;5108074;28;20262;-51
2023/04/27 04:29:46;;;;;;;20.57;12.70;;;5.70;99.90;;;;;;5110262;28;20286;-51
2023/04/27 04:32:16;;;;;;;39.37;19.30;;;5.70;99.90;;;;;;5115111;28;20297;-51
2023/04/27 04:34:49;;;;;;;26.83;15.20;;;5.60;99.90;;;;;;5107703;28;20676;-51
2023/04/27 04:37:18;;;;;;;34.60;18.30;;;5.50;99.90;;;;;;5108282;28;20235;-50
2023/04/27 04:39:46;;;;;;;27.10;15.43;;;5.50;99.90;;;;;;5108225;28;20283;-51
2023/04/27 04:42:14;;;;;;;38.83;18.93;;;5.50;99.90;;;;;;5111296;28;20250;-51
2023/04/27 04:44:42;;;;;;;34.37;18.80;;;5.50;99.90;;;;;;5111335;28;20252;-51
2023/04/27 04:47:10;;;;;;;12.67;8.30;;;5.60;99.90;;;;;;5097286;28;20230;-51
2023/04/27 04:49:38;;;;;;;13.43;8.57;;;5.60;99.90;;;;;;5111598;28;20308;-50
2023/04/27 04:52:08;;;;;;;14.33;9.17;;;5.70;99.90;;;;;;5111516;28;20201;-50
2023/04/27 04:54:36;;;;;;;29.30;18.23;;;5.80;99.90;;;;;;5111445;28;20294;-51
2023/04/27 04:57:06;;;;;;;28.07;15.60;;;5.80;99.90;;;;;;5111124;28;20316;-51
2023/04/27 04:59:34;;;;;;;29.77;17.47;;;5.80;99.90;;;;;;5111836;28;20215;-50
2023/04/27 05:02:02;;;;;;;14.77;10.87;;;5.80;99.90;;;;;;5111584;28;20209;-51
2023/04/27 05:04:30;;;;;;;17.20;12.17;;;5.80;99.90;;;;;;5111244;28;20294;-51
2023/04/27 05:07:00;;;;;;;12.90;8.67;;;5.80;99.90;;;;;;5111026;28;20235;-51
2023/04/27 05:09:29;;;;;;;17.33;12.13;;;5.80;99.90;;;;;;5111320;28;20271;-51
2023/04/27 05:11:57;;;;;;;20.07;12.30;;;5.80;99.90;;;;;;5111172;28;20219;-50
2023/04/27 05:14:25;;;;;;;14.37;9.87;;;5.90;99.90;;;;;;5111284;28;20214;-50
2023/04/27 05:16:53;;;;;;;18.90;9.43;;;6.10;99.90;;;;;;5111067;28;20623;-50
2023/04/27 05:19:21;;;;;;;15.27;10.57;;;6.10;99.90;;;;;;5111109;28;20321;-50
2023/04/27 05:21:49;;;;;;;17.20;10.23;;;6.30;99.90;;;;;;5111161;28;20211;-51
2023/04/27 05:24:17;;;;;;;14.83;10.03;;;6.40;99.90;;;;;;5111159;28;20235;-51
2023/04/27 05:26:46;;;;;;;13.70;9.63;;;6.50;99.90;;;;;;5111106;28;20270;-50
2023/04/27 05:29:14;;;;;;;15.43;10.03;;;6.50;99.90;;;;;;5110903;28;20233;-51
2023/04/27 05:31:43;;;;;;;14.83;10.20;;;6.50;99.90;;;;;;5110805;28;20212;-50
2023/04/27 05:34:12;;;;;;;16.27;9.60;;;6.60;99.90;;;;;;5110977;28;20275;-51
2023/04/27 05:36:40;;;;;;;18.30;10.23;;;6.60;99.90;;;;;;5110547;28;20849;-51
2023/04/27 05:39:08;;;;;;;15.87;10.07;;;6.80;99.90;;;;;;5111088;28;20618;-50
2023/04/27 05:41:36;;;;;;;17.17;10.47;;;6.80;99.90;;;;;;5110635;28;20216;-51
2023/04/27 05:44:06;;;;;;;13.60;9.63;;;7.10;99.90;;;;;;5108825;27;20239;-50
2023/04/27 05:46:34;;;;;;;19.40;10.50;;;7.10;99.90;;;;;;5100249;28;20683;-51
2023/04/27 05:49:05;;;;;;;15.60;10.23;;;7.30;99.90;;;;;;5104656;28;20286;-52
2023/04/27 05:51:33;;;;;;;15.93;9.77;;;7.30;99.90;;;;;;5108577;27;20211;-51
2023/04/27 05:54:01;;;;;;;17.67;10.43;;;7.30;99.90;;;;;;5105639;27;20665;-51
2023/04/27 05:56:30;;;;;;;17.87;11.10;;;7.40;99.90;;;;;;5109685;28;20257;-51
2023/04/27 05:58:58;;;;;;;20.03;10.40;;;7.40;99.90;;;;;;5103828;28;20228;-51
2023/04/27 06:01:30;;;;;;;15.23;9.10;;;7.40;99.90;;;;;;5110141;28;20210;-51
2023/04/27 06:04:00;;;;;;;15.43;9.80;;;7.40;99.90;;;;;;5110218;28;20231;-51
2023/04/27 06:06:31;;;;;;;17.37;9.93;;;7.40;99.90;;;;;;5110089;28;20261;-51
2023/04/27 06:08:59;;;;;;;11.77;9.20;;;7.40;99.90;;;;;;5109963;28;20223;-51
2023/04/27 06:11:28;;;;;;;12.30;9.43;;;7.50;99.90;;;;;;5110023;28;20297;-51
2023/04/27 06:13:55;;;;;;;15.23;9.53;;;7.60;99.90;;;;;;5110135;28;20210;-51
2023/04/27 06:16:24;;;;;;;18.93;10.30;;;7.60;99.90;;;;;;5101527;28;20374;-51
2023/04/27 06:18:53;;;;;;;13.73;9.47;;;7.70;99.90;;;;;;5109873;28;20218;-51
2023/04/27 06:21:21;;;;;;;14.37;9.80;;;7.80;99.90;;;;;;5109923;28;20288;-51
2023/04/27 06:23:49;;;;;;;16.43;9.77;;;7.80;99.90;;;;;;5109716;28;20896;-51
2023/04/27 06:26:17;;;;;;;16.83;10.03;;;7.80;99.90;;;;;;5095576;28;20900;-52
2023/04/27 06:28:45;;;;;;;16.17;9.53;;;7.80;99.90;;;;;;5102134;28;20624;-52
2023/04/27 06:31:14;;;;;;;14.70;9.60;;;7.80;99.90;;;;;;5109648;28;20951;-51
2023/04/27 06:33:42;;;;;;;15.37;9.37;;;7.90;99.90;;;;;;5109704;28;20230;-51
2023/04/27 06:36:11;;;;;;;18.07;9.83;;;7.90;99.90;;;;;;5109326;28;20701;-52
2023/04/27 06:38:39;;;;;;;17.47;9.27;;;7.90;99.90;;;;;;5109603;28;20231;-51
2023/04/27 06:41:07;;;;;;;14.73;9.83;;;8.00;99.90;;;;;;5100811;28;20200;-50
2023/04/27 06:43:35;;;;;;;14.37;9.97;;;8.20;99.90;;;;;;5107880;28;20294;-51
2023/04/27 06:46:03;;;;;;;15.37;9.30;;;8.30;99.90;;;;;;5097762;28;20235;-51
2023/04/27 06:48:31;;;;;;;17.67;10.00;;;8.60;99.90;;;;;;5106668;28;20228;-50
2023/04/27 06:50:59;;;;;;;13.50;9.57;;;8.50;99.90;;;;;;5109428;28;20242;-51
2023/04/27 06:53:30;;;;;;;13.17;9.50;;;8.60;99.90;;;;;;5108719;28;20218;-51
2023/04/27 06:55:58;;;;;;;12.60;9.80;;;8.70;99.90;;;;;;5109199;28;20314;-51
2023/04/27 06:58:26;;;;;;;16.20;9.87;;;8.70;99.90;;;;;;5109256;28;20343;-51
2023/04/27 07:00:55;;;;;;;13.90;9.83;;;8.80;99.90;;;;;;5109296;28;20261;-51
2023/04/27 07:03:22;;;;;;;15.67;9.73;;;8.80;99.90;;;;;;5108455;28;20203;-52
2023/04/27 07:05:51;;;;;;;15.90;10.03;;;8.90;99.90;;;;;;5108845;28;20220;-51
2023/04/27 07:08:19;;;;;;;16.00;10.20;;;9.00;99.90;;;;;;5108456;28;20262;-51
2023/04/27 07:10:49;;;;;;;13.33;9.87;;;9.10;99.90;;;;;;5104429;28;20287;-51
2023/04/27 07:13:17;;;;;;;11.80;9.20;;;9.20;99.90;;;;;;5108085;28;20294;-51
2023/04/27 07:15:45;;;;;;;13.43;9.70;;;9.30;99.90;;;;;;5108885;28;20320;-51
2023/04/27 07:18:13;;;;;;;15.00;9.30;;;9.40;99.90;;;;;;5108865;28;20211;-51
2023/04/27 07:20:42;;;;;;;14.90;9.77;;;9.30;99.90;;;;;;5108568;28;20315;-51
2023/04/27 07:23:10;;;;;;;15.00;9.77;;;9.90;99.90;;;;;;5109275;28;20291;-51
2023/04/27 07:25:39;;;;;;;15.47;10.33;;;9.90;99.90;;;;;;5108814;28;20329;-52
2023/04/27 07:28:08;;;;;;;13.90;10.13;;;10.10;99.90;;;;;;5108705;28;20727;-51
2023/04/27 07:30:36;;;;;;;13.13;9.90;;;10.90;99.90;;;;;;5108918;28;20211;-51
2023/04/27 07:33:05;;;;;;;13.97;9.40;;;11.50;99.90;;;;;;5094572;28;20911;-50
2023/04/27 07:35:34;;;;;;;16.13;10.37;;;12.20;99.90;;;;;;5101222;28;20231;-51
2023/04/27 07:38:02;;;;;;;12.33;9.77;;;12.20;99.90;;;;;;5108796;28;20671;-51
2023/04/27 07:40:31;;;;;;;15.17;9.40;;;12.20;99.90;;;;;;5108423;28;20747;-51
2023/04/27 07:42:59;;;;;;;12.23;9.50;;;12.50;99.90;;;;;;5108458;28;20272;-51
2023/04/27 07:45:31;;;;;;;13.90;10.13;;;12.60;99.90;;;;;;5102081;28;20306;-51
2023/04/27 07:48:01;;;;;;;14.80;9.97;;;12.70;99.90;;;;;;5101953;28;20223;-51
2023/04/27 07:50:30;;;;;;;14.40;10.52;;;12.50;99.90;;;;;;5108377;28;20213;-51
2023/04/27 07:52:59;;;;;;;11.60;9.52;;;12.60;99.90;;;;;;5108787;28;20242;-51
2023/04/27 07:55:27;;;;;;;13.95;9.93;;;12.90;99.90;;;;;;5101568;28;20227;-51
2023/04/27 07:57:56;;;;;;;12.70;10.07;;;12.90;99.90;;;;;;5098846;28;20742;-51
2023/04/27 08:00:25;;;;;;;14.50;10.75;;;12.70;99.90;;;;;;5107884;28;20239;-51
2023/04/27 08:02:55;;;;;;;14.05;9.75;;;12.70;99.90;;;;;;5108431;28;20286;-51
2023/04/27 08:05:23;;;;;;;13.93;9.97;;;12.60;99.90;;;;;;5108239;28;20230;-52
2023/04/27 08:07:52;;;;;;;18.90;10.30;;;12.30;99.90;;;;;;5108199;28;20246;-51
2023/04/27 08:10:22;;;;;;;14.97;10.20;;;12.20;99.90;;;;;;5108177;28;20204;-51
2023/04/27 08:12:50;;;;;;;14.63;8.67;;;12.30;99.90;;;;;;5107723;28;20921;-51
2023/04/27 08:15:18;;;;;;;15.60;9.63;;;12.20;99.90;;;;;;5110417;28;20786;-49
2023/04/27 08:17:47;;;;;;;15.43;10.27;;;12.00;99.90;;;;;;5111956;28;20204;-51
2023/04/27 08:20:16;;;;;;;17.20;10.77;;;12.00;99.90;;;;;;5111696;28;20231;-50
2023/04/27 08:22:44;;;;;;;15.77;10.30;;;12.00;99.90;;;;;;5112018;28;20200;-50
2023/04/27 08:25:12;;;;;;;16.00;11.03;;;11.80;99.90;;;;;;5111836;28;20725;-51
2023/04/27 08:27:41;;;;;;;15.00;10.57;;;11.50;99.70;;;;;;5111068;28;20268;-51
2023/04/27 08:30:10;;;;;;;12.53;10.17;;;11.50;99.80;;;;;;5112027;28;20314;-51
2023/04/27 08:32:39;;;;;;;15.03;9.97;;;11.30;99.90;;;;;;5111530;28;20286;-51
2023/04/27 08:35:07;;;;;;;12.77;10.13;;;11.20;99.90;;;;;;5111355;28;20352;-51
2023/04/27 08:37:36;;;;;;;13.70;10.50;;;11.20;99.90;;;;;;5111481;28;20239;-52
2023/04/27 08:40:06;;;;;;;15.57;10.23;;;11.30;99.90;;;;;;5111687;28;20238;-51
2023/04/27 08:42:35;;;;;;;13.47;10.27;;;11.40;99.90;;;;;;5111461;28;20200;-51
2023/04/27 08:45:03;;;;;;;15.00;10.77;;;11.50;99.80;;;;;;5107984;28;20318;-51
2023/04/27 08:47:32;;;;;;;13.97;10.50;;;11.40;98.90;;;;;;5100175;28;20912;-52
2023/04/27 08:50:11;;;;;;;15.10;10.70;;;11.50;99.80;;;;;;5111396;27;20292;-52
2023/04/27 08:52:43;;;;;;;12.80;9.90;;;11.60;99.70;;;;;;5111356;28;20200;-51
2023/04/27 08:55:11;;;;;;;12.97;9.93;;;11.90;99.50;;;;;;5110154;28;20281;-51
2023/04/27 08:57:53;;;;;;;12.37;10.70;;;11.90;99.50;;;;;;5110273;28;20210;-51
2023/04/27 09:00:21;;;;;;;12.47;9.90;;;12.00;99.90;;;;;;5107875;28;20199;-51
2023/04/27 09:02:49;;;;;;;14.97;10.20;;;11.90;99.40;;;;;;5118850;27;20214;-51
2023/04/27 09:05:18;;;;;;;14.17;9.83;;;12.10;99.30;;;;;;5111483;28;20241;-51
2023/04/27 09:07:58;;;;;;;14.70;10.27;;;12.30;99.90;;;;;;5109885;28;20211;-51
2023/04/27 09:10:28;;;;;;;15.07;9.77;;;12.50;99.50;;;;;;5110031;28;20231;-51
2023/04/27 09:12:58;;;;;;;14.80;10.20;;;12.80;99.60;;;;;;5109988;28;20596;-51
2023/04/27 09:15:26;;;;;;;12.67;10.17;;;13.10;99.30;;;;;;5108404;28;20323;-52
2023/04/27 09:17:56;;;;;;;12.83;9.47;;;13.00;99.10;;;;;;5104492;28;20216;-50
2023/04/27 09:20:25;;;;;;;15.53;10.40;;;13.10;99.80;;;;;;5111611;27;20227;-50
2023/04/27 09:22:56;;;;;;;13.33;9.90;;;13.20;99.90;;;;;;5103794;28;20207;-51
2023/04/27 09:25:29;;;;;;;15.37;10.13;;;13.40;99.90;;;;;;5114665;27;20223;-51
2023/04/27 09:27:58;;;;;;;14.40;9.93;;;13.40;99.70;;;;;;5114447;27;20278;-51
2023/04/27 09:30:26;;;;;;;14.27;10.47;;;13.50;99.90;;;;;;5117624;27;20251;-51
2023/04/27 09:32:56;;;;;;;16.13;10.03;;;13.70;99.90;;;;;;5113925;27;20235;-52
2023/04/27 09:35:26;;;;;;;13.30;9.83;;;14.10;99.20;;;;;;5087640;28;20725;-51
2023/04/27 09:37:55;;;;;;;14.73;9.93;;;14.30;98.70;;;;;;5096392;28;20200;-51
2023/04/27 09:40:26;;;;;;;12.47;9.63;;;14.40;97.90;;;;;;5100257;28;20208;-51
2023/04/27 09:42:57;;;;;;;13.65;9.63;;;14.20;98.30;;;;;;5105562;27;20303;-51
2023/04/27 09:45:25;;;;;;;13.20;9.87;;;14.00;98.70;;;;;;5108221;28;20223;-51
2023/04/27 09:47:54;;;;;;;13.40;10.20;;;14.30;99.00;;;;;;5110397;27;20235;-51
2023/04/27 09:50:22;;;;;;;16.75;11.38;;;14.30;98.40;;;;;;5109352;28;20224;-52
2023/04/27 09:52:50;;;;;;;16.05;10.73;;;14.50;97.80;;;;;;5110222;28;20261;-51
2023/04/27 09:55:24;;;;;;;13.68;9.82;;;14.50;98.10;;;;;;5110734;27;20648;-51
2023/04/27 09:58:05;;;;;;;11.93;10.27;;;14.80;97.80;;;;;;5120459;27;20234;-50
2023/04/27 10:00:47;;;;;;;15.38;10.52;;;14.70;97.60;;;;;;5108614;28;20203;-50
2023/04/27 10:03:22;;;;;;;13.95;10.65;;;14.80;97.70;;;;;;5109438;28;20209;-51
2023/04/27 10:06:39;;;;;;;12.40;10.07;;;15.00;98.00;;;;;;5108980;28;20687;-51
2023/04/27 10:09:08;;;;;;;16.88;9.52;;;14.70;96.00;;;;;;5109500;28;20291;-50
2023/04/27 10:11:39;;;;;;;16.35;9.98;;;14.80;98.50;;;;;;5108579;28;20294;-52
2023/04/27 10:14:10;;;;;;;14.00;9.60;;;15.00;96.70;;;;;;5109920;28;20562;-51
2023/04/27 10:16:45;;;;;;;15.73;10.77;;;14.90;96.50;;;;;;5109778;28;20314;-51
2023/04/27 10:19:13;;;;;;;13.47;10.07;;;14.60;96.30;;;;;;5109851;28;20207;-52
2023/04/27 10:21:53;;;;;;;12.07;9.90;;;14.60;97.30;;;;;;5109650;28;20264;-52
2023/04/27 10:24:32;;;;;;;14.10;10.05;;;14.40;96.60;;;;;;5109661;28;20207;-51
2023/04/27 10:27:05;;;;;;;13.23;9.68;;;14.30;95.80;;;;;;5109658;28;20254;-51
2023/04/27 10:29:40;;;;;;;13.93;10.40;;;14.20;96.00;;;;;;5109239;28;20238;-51
2023/04/27 10:32:13;;;;;;;11.57;9.23;;;14.50;97.00;;;;;;5109470;28;20290;-51
2023/04/27 10:34:45;;;;;;;12.53;9.20;;;14.40;96.40;;;;;;5108817;28;20290;-50
2023/04/27 10:37:14;;;;;;;12.10;9.50;;;14.40;96.60;;;;;;5109191;28;20235;-51
2023/04/27 10:39:43;;;;;;;14.55;9.82;;;14.40;96.40;;;;;;5108586;28;20235;-52
2023/04/27 10:42:27;;;;;;;12.82;9.85;;;14.50;97.00;;;;;;5109103;28;20268;-51
2023/04/27 10:44:58;;;;;;;17.58;10.10;;;14.50;97.40;;;;;;5107472;28;20245;-51
2023/04/27 10:47:37;;;;;;;15.38;9.30;;;14.90;98.50;;;;;;5097488;28;20290;-51
2023/04/27 10:50:07;;;;;;;11.70;9.30;;;14.90;97.20;;;;;;5109023;28;20224;-51
2023/04/27 10:52:35;;;;;;;13.40;9.93;;;15.00;98.10;;;;;;5109065;28;20914;-50
2023/04/27 10:55:15;;;;;;;11.80;8.88;;;14.90;98.80;;;;;;5108907;28;20296;-51
2023/04/27 10:57:48;;;;;;;14.93;9.32;;;14.90;97.40;;;;;;5108848;28;20199;-51
2023/04/27 11:00:24;;;;;;;13.68;9.32;;;15.00;98.80;;;;;;5108913;28;20290;-51
2023/04/27 11:02:52;;;;;;;11.70;9.82;;;15.10;97.90;;;;;;5103308;27;20210;-52
2023/04/27 11:05:23;;;;;;;11.98;9.68;;;15.30;97.50;;;;;;5091085;28;20228;-52
2023/04/27 11:07:52;;;;;;;10.93;9.00;;;15.30;99.10;;;;;;5108435;28;20294;-51
2023/04/27 11:10:20;;;;;;;14.30;9.70;;;15.30;98.20;;;;;;5105008;28;20273;-51
2023/04/27 11:12:48;;;;;;;13.82;9.60;;;15.20;97.30;;;;;;5108954;28;20636;-51
2023/04/27 11:15:18;;;;;;;16.25;10.00;;;15.10;97.40;;;;;;5108885;28;20327;-51
2023/04/27 11:17:46;;;;;;;15.70;10.40;;;15.10;97.90;;;;;;5094664;28;20753;-51
2023/04/27 11:20:15;;;;;;;12.30;9.40;;;15.20;98.60;;;;;;5108533;28;20666;-51
2023/04/27 11:22:45;;;;;;;13.45;9.25;;;15.10;98.20;;;;;;5104333;28;20294;-52
2023/04/27 11:25:14;;;;;;;15.02;9.70;;;15.30;99.10;;;;;;5108777;28;20284;-52
2023/04/27 11:27:44;;;;;;;14.88;9.15;;;15.30;97.90;;;;;;5108336;28;20210;-51
2023/04/27 11:30:23;;;;;;;13.85;9.45;;;15.30;98.00;;;;;;5108393;28;20273;-52
2023/04/27 11:32:52;;;;;;;15.10;9.73;;;15.40;97.30;;;;;;5100653;28;20240;-52
2023/04/27 11:35:31;;;;;;;16.33;9.23;;;15.40;96.30;;;;;;5105014;28;20233;-52
2023/04/27 11:37:59;;;;;;;12.38;8.90;;;15.50;96.00;;;;;;5108506;28;20231;-51
2023/04/27 11:40:28;;;;;;;14.30;9.23;;;15.30;96.20;;;;;;5108414;28;20286;-51
2023/04/27 11:43:02;;;;;;;15.02;9.82;;;15.30;95.70;;;;;;5108508;28;20295;-52
2023/04/27 11:45:31;;;;;;;14.52;9.40;;;15.30;95.10;;;;;;5098283;28;20310;-51
2023/04/27 11:47:59;;;;;;;15.38;9.90;;;15.20;94.80;;;;;;5101356;28;20237;-52
2023/04/27 11:50:27;;;;;;;15.73;9.32;;;15.20;94.90;;;;;;5110603;28;20258;-51
2023/04/27 11:53:00;;;;;;;14.43;9.25;;;15.30;95.00;;;;;;5112790;28;20383;-52
2023/04/27 11:55:28;;;;;;;12.17;9.00;;;15.10;94.40;;;;;;5107130;28;20310;-51
2023/04/27 11:57:57;;;;;;;11.80;9.25;;;15.20;95.60;;;;;;5112293;28;20207;-51
2023/04/27 12:00:26;;;;;;;13.35;8.90;;;15.20;95.20;;;;;;5109471;27;20211;-51
2023/04/27 12:02:55;;;;;;;12.57;7.97;;;15.10;95.10;;;;;;5112168;28;20242;-52
2023/04/27 12:05:23;;;;;;;15.00;9.60;;;15.10;95.00;;;;;;5112277;28;20231;-51
2023/04/27 12:07:52;;;;;;;11.65;8.73;;;15.40;94.40;;;;;;5111138;28;20770;-51
2023/04/27 12:10:20;;;;;;;14.15;9.07;;;15.40;93.90;;;;;;5111707;28;20231;-51
2023/04/27 12:12:48;;;;;;;13.05;8.30;;;15.50;94.20;;;;;;5115598;27;20764;-52
2023/04/27 12:15:16;;;;;;;11.57;8.27;;;15.60;93.30;;;;;;5116640;27;20258;-52
2023/04/27 12:17:44;;;;;;;12.43;8.18;;;15.40;94.10;;;;;;5127527;27;20273;-51
2023/04/27 12:20:14;;;;;;;14.25;9.52;;;15.20;94.50;;;;;;5132568;27;20207;-51
2023/04/27 12:22:42;;;;;;;12.60;8.75;;;15.30;95.50;;;;;;5122644;27;20667;-52
2023/04/27 12:25:10;;;;;;;13.32;8.82;;;15.40;95.40;;;;;;5132486;27;20254;-51
2023/04/27 12:27:38;;;;;;;11.82;8.48;;;15.50;96.20;;;;;;5132524;27;20238;-51
2023/04/27 12:30:08;;;;;;;13.48;10.77;;;15.50;94.90;;;;;;5127583;27;20238;-52
2023/04/27 12:32:36;;;;;;;12.27;9.07;;;15.50;95.20;;;;;;5112537;27;20203;-51
2023/04/27 12:35:05;;;;;;;13.15;8.77;;;15.60;94.60;;;;;;5127485;27;20199;-51
2023/04/27 12:37:35;;;;;;;13.00;8.10;;;15.60;94.80;;;;;;5132431;27;20255;-51
2023/04/27 12:40:05;;;;;;;11.55;8.68;;;15.60;93.90;;;;;;5119886;27;20665;-51
2023/04/27 12:42:33;;;;;;;10.90;8.07;;;15.70;97.90;;;;;;5132806;27;20207;-51
2023/04/27 12:45:03;;;;;;;13.20;8.23;;;15.80;96.60;;;;;;5132240;27;20203;-52
2023/04/27 12:47:33;;;;;;;12.88;8.85;;;15.80;95.70;;;;;;5132806;27;20227;-51
2023/04/27 12:50:21;;;;;;;11.95;8.60;;;15.70;95.10;;;;;;5110821;27;20216;-52
2023/04/27 12:52:50;;;;;;;11.23;8.40;;;16.00;95.00;;;;;;5113266;27;20208;-51
2023/04/27 12:55:19;;;;;;;11.98;8.60;;;15.90;94.30;;;;;;5131275;27;20261;-52